createdAt,value
2023-02-02T00:00:00.560Z,4.6
2023-02-02T00:10:00.588Z,3.7
2023-02-02T00:20:00.541Z,3.4
2023-02-02T00:30:00.525Z,4.3
2023-02-02T00:40:00.809Z,3.4
2023-02-02T00:50:00.844Z,4.2
2023-02-02T01:00:00.830Z,4.4
2023-02-02T01:10:00.795Z,4.3
2023-02-02T01:20:01.514Z,4.9
2023-02-02T01:30:00.532Z,4.6
2023-02-02T01:40:00.554Z,3.3
2023-02-02T01:50:00.527Z,2.6
2023-02-02T02:00:00.586Z,1.6
2023-02-02T02:10:00.570Z,0.7
2023-02-02T02:20:00.541Z,1.2
2023-02-02T02:30:00.570Z,1.7
2023-02-02T02:40:00.566Z,1.8
2023-02-02T02:50:00.579Z,3.1
2023-02-02T03:00:00.642Z,1.7
2023-02-02T03:10:00.561Z,1.2
2023-02-02T03:20:00.882Z,1.4
2023-02-02T03:30:00.525Z,1.0
2023-02-02T03:40:00.550Z,1.3
2023-02-02T03:50:00.545Z,1.2
2023-02-02T04:00:00.541Z,1.5
2023-02-02T04:10:00.771Z,1.5
2023-02-02T04:20:00.790Z,1.5
2023-02-02T04:30:00.807Z,1.5
2023-02-02T04:40:01.552Z,1.3
2023-02-02T04:50:00.545Z,1.6
2023-02-02T05:00:00.645Z,1.8
2023-02-02T05:10:00.584Z,1.9
2023-02-02T05:20:00.824Z,2.1
2023-02-02T05:30:00.737Z,1.7
2023-02-02T05:40:01.055Z,2.3
2023-02-02T05:50:00.629Z,2.1
2023-02-02T06:00:00.566Z,2.6
2023-02-02T06:10:00.532Z,2.0
2023-02-02T06:20:00.566Z,2.1
2023-02-02T06:30:00.588Z,2.2
2023-02-02T06:40:00.598Z,2.2
2023-02-02T06:50:00.561Z,2.6
2023-02-02T07:00:00.582Z,2.4
2023-02-02T07:10:00.534Z,5.0
2023-02-02T07:20:00.575Z,2.7
2023-02-02T07:30:00.527Z,3.1
2023-02-02T07:40:00.600Z,2.0
2023-02-02T07:50:00.581Z,2.9
2023-02-02T08:00:00.548Z,2.5
2023-02-02T08:10:00.571Z,3.0
2023-02-02T08:20:00.822Z,2.0
2023-02-02T08:30:00.716Z,2.5
2023-02-02T08:40:00.971Z,2.3
2023-02-02T08:50:00.835Z,2.3
2023-02-02T09:00:00.559Z,2.7
2023-02-02T09:10:00.592Z,2.2
2023-02-02T09:20:00.540Z,2.7
2023-02-02T09:30:00.554Z,2.0
2023-02-02T09:40:00.564Z,1.9
2023-02-02T09:50:00.532Z,2.0
2023-02-02T10:00:00.579Z,2.4
2023-02-02T10:10:00.575Z,2.5
2023-02-02T10:20:00.563Z,2.3
2023-02-02T10:30:00.532Z,2.5
2023-02-02T10:40:00.670Z,2.7
2023-02-02T10:50:00.562Z,3.2
2023-02-02T11:00:00.663Z,2.3
2023-02-02T11:10:00.645Z,2.1
2023-02-02T11:20:00.860Z,1.8
2023-02-02T11:30:00.800Z,2.4
2023-02-02T11:40:00.927Z,3.2
2023-02-02T11:50:00.628Z,2.7
2023-02-02T12:00:00.583Z,2.8
2023-02-02T12:10:00.565Z,3.0
2023-02-02T12:20:00.538Z,3.1
2023-02-02T12:30:00.538Z,2.5
2023-02-02T12:40:00.628Z,2.4
2023-02-02T12:50:00.660Z,2.3
2023-02-02T13:00:00.671Z,3.0
2023-02-02T13:10:00.559Z,3.0
2023-02-02T13:20:00.547Z,2.6
2023-02-02T13:30:00.551Z,3.0
2023-02-02T13:40:00.583Z,3.1
2023-02-02T13:50:00.561Z,2.8
2023-02-02T14:00:00.709Z,2.8
2023-02-02T14:10:00.879Z,2.8
2023-02-02T14:20:00.743Z,3.4
2023-02-02T14:30:00.678Z,4.4
2023-02-02T14:40:00.590Z,3.4
2023-02-02T14:50:00.536Z,3.8
2023-02-02T15:00:01.635Z,3.6
2023-02-02T15:10:00.580Z,3.8
2023-02-02T15:20:00.535Z,4.1
2023-02-02T15:30:00.551Z,3.4
2023-02-02T15:40:00.553Z,4.2
2023-02-02T15:50:00.651Z,4.1
2023-02-02T16:00:00.727Z,4.1
2023-02-02T16:10:00.607Z,4.2
2023-02-02T16:20:00.541Z,3.8
2023-02-02T16:30:00.542Z,4.3
2023-02-02T16:40:00.521Z,4.1
2023-02-02T16:50:00.615Z,5.0
2023-02-02T17:00:00.684Z,4.9
2023-02-02T17:10:00.908Z,5.2
2023-02-02T17:20:00.981Z,5.5
2023-02-02T17:30:02.013Z,5.4
2023-02-02T17:40:00.624Z,5.0
2023-02-02T17:50:00.620Z,3.7
2023-02-02T18:00:00.593Z,3.6
2023-02-02T18:10:00.581Z,4.1
2023-02-02T18:20:00.559Z,3.9
2023-02-02T18:30:00.536Z,8.8
2023-02-02T18:40:00.594Z,6.9
2023-02-02T18:50:00.549Z,5.7
2023-02-02T19:00:00.591Z,6.7
2023-02-02T19:10:00.538Z,6.0
2023-02-02T19:20:00.826Z,6.4
2023-02-02T19:30:01.434Z,6.2
2023-02-02T19:40:00.824Z,5.8
2023-02-02T19:50:00.538Z,5.9
2023-02-02T20:00:00.561Z,6.5
2023-02-02T20:10:00.541Z,5.3
2023-02-02T20:20:00.564Z,5.1
2023-02-02T20:30:00.546Z,5.7
2023-02-02T20:40:00.560Z,5.9
2023-02-02T20:50:00.582Z,5.8
2023-02-02T21:00:00.573Z,7.1
2023-02-02T21:10:00.528Z,6.0
2023-02-02T21:20:00.538Z,7.4
2023-02-02T21:30:00.562Z,6.4
2023-02-02T21:40:00.561Z,5.4
2023-02-02T21:50:00.633Z,5.5
2023-02-02T22:00:00.888Z,5.8
2023-02-02T22:10:00.804Z,6.3
2023-02-02T22:20:00.796Z,6.6
2023-02-02T22:30:00.630Z,6.2
2023-02-02T22:40:01.039Z,7.5
2023-02-02T22:50:00.535Z,6.9
2023-02-02T23:00:00.583Z,6.3
2023-02-02T23:10:00.557Z,6.4
2023-02-02T23:20:00.566Z,7.2
2023-02-02T23:30:00.571Z,6.5
2023-02-02T23:40:00.597Z,6.2
2023-02-02T23:50:00.553Z,6.4
